This is the latest recevied weather packets stored in our database for station/object DK4EP-10. If no packets are shown the sender has not sent any weather packets the latest 10 day(s).
| Time | Temp. | Humidity | Pressure | Rain* | Wind** | Luminosity | Snow |
|---|---|---|---|---|---|---|---|
| 1777892142 | 27.22° C | 45% | 990 hPa | - | - | - | - |
| 1777891241 | 26.67° C | 47% | 990 hPa | - | - | - | - |
| 1777890339 | 27.22° C | 45% | 990 hPa | - | - | - | - |
| 1777889438 | 26.11° C | 45% | 990 hPa | - | - | - | - |
| 1777888537 | 25° C | 46% | 990 hPa | - | - | - | - |
| 1777887636 | 22.78° C | 50% | 990 hPa | - | - | - | - |
| 1777886735 | 23.33° C | 46% | 991 hPa | - | - | - | - |
| 1777885833 | 23.33° C | 49% | 991 hPa | - | - | - | - |
| 1777884932 | 23.89° C | 49% | 991 hPa | - | - | - | - |
| 1777884031 | 23.89° C | 51% | 991 hPa | - | - | - | - |
| 1777883130 | 25° C | 50% | 991 hPa | - | - | - | - |
| 1777882229 | 24.44° C | 46% | 991 hPa | - | - | - | - |
| 1777881328 | 23.33° C | 48% | 991 hPa | - | - | - | - |
| 1777880426 | 22.22° C | 48% | 991 hPa | - | - | - | - |
| 1777879524 | 22.78° C | 49% | 990 hPa | - | - | - | - |
| 1777878623 | 22.78° C | 50% | 990 hPa | - | - | - | - |
| 1777877722 | 21.67° C | 52% | 990 hPa | - | - | - | - |
| 1777876821 | 19.44° C | 56% | 990 hPa | - | - | - | - |
| 1777875920 | 18.33° C | 62% | 990 hPa | - | - | - | - |
| 1777875021 | 18.89° C | 62% | 990 hPa | - | - | - | - |
| 1777874117 | 18.89° C | 61% | 990 hPa | - | - | - | - |
| 1777873216 | 16.11° C | 69% | 990 hPa | - | - | - | - |
| 1777872315 | 15° C | 70% | 990 hPa | - | - | - | - |
| 1777871414 | 15° C | 72% | 990 hPa | - | - | - | - |
| 1777870513 | 13.89° C | 83% | 990 hPa | - | - | - | - |
* Rain since midnight (hover to see other rain measurements)
** Current wind speed in m/s (hover to see current wind gust speed)